Time;durP1;ratioP1;P1;durP2;ratioP2;P2;SDS_P1;SDS_P2;PMS_P1;PMS_P2;Temp;Humidity;BMP_temperature;BMP_pressure;BME280_temperature;BME280_humidity;BME280_pressure;Samples;Min_cycle;Max_cycle;Signal;HPM_P1;HPM_P2
2021/06/02 00:05:48;;;;;;;4.23;3.40;;;18.90;43.20;;;;;;5029367;28;21190;-48
2021/06/02 00:08:15;;;;;;;3.50;2.83;;;18.90;43.00;;;;;;5029429;28;20627;-49
2021/06/02 00:10:42;;;;;;;4.60;3.70;;;18.80;42.80;;;;;;5029986;28;20635;-49
2021/06/02 00:13:11;;;;;;;3.13;2.83;;;18.80;42.70;;;;;;5029627;28;21057;-48
2021/06/02 00:15:38;;;;;;;4.77;3.70;;;18.70;42.60;;;;;;5028876;28;20658;-49
2021/06/02 00:18:05;;;;;;;3.97;3.23;;;18.70;42.70;;;;;;5029004;28;20639;-49
2021/06/02 00:20:32;;;;;;;4.07;3.60;;;18.70;42.80;;;;;;5029319;28;20657;-49
2021/06/02 00:22:58;;;;;;;3.70;3.40;;;18.70;42.90;;;;;;5029104;28;20984;-49
2021/06/02 00:25:25;;;;;;;4.37;3.60;;;18.80;43.00;;;;;;5029485;28;20623;-49
2021/06/02 00:27:52;;;;;;;4.37;3.93;;;18.70;42.70;;;;;;5027961;28;20654;-50
2021/06/02 00:30:21;;;;;;;3.70;3.40;;;18.70;42.80;;;;;;5029038;28;20611;-49
2021/06/02 00:32:47;;;;;;;4.17;3.83;;;18.60;42.90;;;;;;5028311;28;20665;-49
2021/06/02 00:35:16;;;;;;;3.83;3.33;;;18.60;43.00;;;;;;5028669;28;20740;-49
2021/06/02 00:37:43;;;;;;;3.90;2.80;;;18.60;43.10;;;;;;5029053;28;20659;-49
2021/06/02 00:40:11;;;;;;;3.73;3.53;;;18.70;43.30;;;;;;5028481;28;20623;-50
2021/06/02 00:42:37;;;;;;;3.47;3.17;;;18.70;43.30;;;;;;5029191;28;20627;-50
2021/06/02 00:45:05;;;;;;;3.40;3.10;;;18.60;43.20;;;;;;5029305;28;20714;-49
2021/06/02 00:47:34;;;;;;;3.93;3.63;;;18.60;43.30;;;;;;5028355;28;20681;-49
2021/06/02 00:50:01;;;;;;;4.63;3.00;;;18.50;43.20;;;;;;5028600;28;20700;-50
2021/06/02 00:52:27;;;;;;;3.83;3.47;;;18.50;43.40;;;;;;5029299;28;20745;-50
2021/06/02 00:54:54;;;;;;;4.23;3.60;;;18.40;43.70;;;;;;5029006;28;20784;-50
2021/06/02 00:57:21;;;;;;;3.10;2.90;;;18.30;44.00;;;;;;5028567;28;20724;-49
2021/06/02 00:59:59;;;;;;;3.60;3.30;;;18.30;44.00;;;;;;5029060;28;21214;-49
2021/06/02 01:02:26;;;;;;;3.60;3.33;;;18.30;44.10;;;;;;5028833;28;20677;-48
2021/06/02 01:04:54;;;;;;;3.50;3.20;;;18.40;44.00;;;;;;5032134;28;20990;-48
2021/06/02 01:07:22;;;;;;;3.43;3.13;;;18.40;43.90;;;;;;5032230;28;20697;-48
2021/06/02 01:09:51;;;;;;;3.97;3.67;;;18.40;43.70;;;;;;5032461;28;21175;-48
2021/06/02 01:12:18;;;;;;;5.10;4.67;;;18.50;43.60;;;;;;5032429;28;20627;-48
2021/06/02 01:14:46;;;;;;;4.37;3.97;;;18.50;43.70;;;;;;5032380;28;20635;-49
2021/06/02 01:17:13;;;;;;;3.40;3.10;;;18.50;43.70;;;;;;5031875;28;20715;-48
2021/06/02 01:19:39;;;;;;;4.60;4.20;;;18.50;43.60;;;;;;5032335;28;20623;-48
2021/06/02 01:22:08;;;;;;;5.47;3.73;;;18.50;43.40;;;;;;5032353;28;20696;-50
2021/06/02 01:24:34;;;;;;;4.33;3.93;;;18.50;43.40;;;;;;5032535;28;20695;-50
2021/06/02 01:27:03;;;;;;;3.90;3.60;;;18.50;43.40;;;;;;5031719;28;20659;-50
2021/06/02 01:29:29;;;;;;;7.73;7.03;;;18.50;43.40;;;;;;5032276;28;21123;-50
2021/06/02 01:32:20;;;;;;;4.37;3.60;;;18.60;43.50;;;;;;5031984;28;20627;-50
2021/06/02 01:35:08;;;;;;;6.03;3.57;;;18.50;43.40;;;;;;5031966;28;20631;-50
2021/06/02 01:37:55;;;;;;;3.60;3.30;;;18.50;43.60;;;;;;5011158;28;20643;-48
2021/06/02 01:40:43;;;;;;;5.00;4.50;;;18.40;43.70;;;;;;5031830;28;20631;-49
2021/06/02 01:43:21;;;;;;;5.10;4.70;;;18.40;43.80;;;;;;5031868;28;20627;-49
2021/06/02 01:46:02;;;;;;;4.03;3.67;;;18.40;43.80;;;;;;5032010;28;20688;-49
2021/06/02 01:48:38;;;;;;;4.10;3.70;;;18.30;43.80;;;;;;5032848;28;21398;-49
2021/06/02 01:51:38;;;;;;;5.37;4.87;;;18.20;43.80;;;;;;5032128;28;20696;-48
2021/06/02 01:54:32;;;;;;;7.50;4.77;;;18.20;44.00;;;;;;5031752;28;20634;-50
2021/06/02 01:57:32;;;;;;;5.23;4.73;;;18.10;44.30;;;;;;5029928;28;21008;-51
2021/06/02 02:00:33;;;;;;;4.90;4.37;;;18.00;44.70;;;;;;5031505;28;20635;-50
2021/06/02 02:03:49;;;;;;;4.73;4.27;;;17.90;45.00;;;;;;5031685;28;20681;-50
2021/06/02 02:06:47;;;;;;;4.20;3.90;;;17.80;45.20;;;;;;5031366;28;20647;-50
2021/06/02 02:09:19;;;;;;;3.43;3.20;;;17.60;45.40;;;;;;5031245;28;21376;-48
2021/06/02 02:11:46;;;;;;;6.53;5.80;;;17.50;45.50;;;;;;5031332;28;20704;-49
2021/06/02 02:14:52;;;;;;;5.63;4.43;;;17.40;45.70;;;;;;5031144;28;20635;-49
2021/06/02 02:17:47;;;;;;;6.23;5.53;;;17.30;45.80;;;;;;5030995;28;20673;-49
2021/06/02 02:20:17;;;;;;;4.17;3.77;;;17.30;45.90;;;;;;5031244;28;20921;-49
2021/06/02 02:23:13;;;;;;;5.20;3.43;;;17.30;45.70;;;;;;5031127;28;20701;-48
2021/06/02 02:25:47;;;;;;;7.73;4.30;;;17.30;45.80;;;;;;5030953;28;20623;-49
2021/06/02 02:28:21;;;;;;;4.87;3.83;;;17.20;45.70;;;;;;5031024;28;20642;-48
2021/06/02 02:30:51;;;;;;;4.67;3.20;;;17.30;46.30;;;;;;5031239;28;20977;-48
2021/06/02 02:33:25;;;;;;;4.13;3.83;;;17.30;46.10;;;;;;5030994;28;20662;-48
2021/06/02 02:36:02;;;;;;;3.87;3.47;;;17.40;46.40;;;;;;5030398;28;20659;-50
2021/06/02 02:38:38;;;;;;;2.93;2.73;;;17.50;45.90;;;;;;5030290;28;20626;-48
2021/06/02 02:41:13;;;;;;;3.53;3.23;;;17.50;45.70;;;;;;5031260;28;20673;-49
2021/06/02 02:43:48;;;;;;;3.37;3.07;;;17.60;45.60;;;;;;5030743;28;20630;-49
2021/06/02 02:46:17;;;;;;;3.30;3.10;;;17.60;45.70;;;;;;5030159;28;20712;-50
2021/06/02 02:48:47;;;;;;;5.47;3.17;;;17.60;45.50;;;;;;5030503;28;20701;-50
2021/06/02 02:51:27;;;;;;;3.30;3.00;;;17.50;45.40;;;;;;5030655;28;20631;-50
2021/06/02 02:54:01;;;;;;;3.53;3.23;;;17.40;45.60;;;;;;5030303;28;20631;-49
2021/06/02 02:56:35;;;;;;;3.40;3.10;;;17.40;45.60;;;;;;5029790;28;20674;-49
2021/06/02 02:59:04;;;;;;;5.00;3.90;;;17.40;45.60;;;;;;5029863;28;20634;-49
2021/06/02 03:01:38;;;;;;;4.07;3.70;;;17.40;45.50;;;;;;5028681;28;20689;-48
2021/06/02 03:04:08;;;;;;;3.60;3.30;;;17.40;45.70;;;;;;5030271;28;20718;-49
2021/06/02 03:06:36;;;;;;;2.90;2.70;;;17.40;45.50;;;;;;5029843;28;20713;-49
2021/06/02 03:09:04;;;;;;;3.40;3.20;;;17.40;45.60;;;;;;5029726;28;20638;-49
2021/06/02 03:11:37;;;;;;;6.10;3.50;;;17.40;45.40;;;;;;5030111;28;21173;-48
2021/06/02 03:14:08;;;;;;;2.70;2.50;;;17.40;45.80;;;;;;5029882;28;20687;-50
2021/06/02 03:16:36;;;;;;;3.40;3.10;;;17.40;46.00;;;;;;5029497;28;20678;-49
2021/06/02 03:19:07;;;;;;;3.47;3.17;;;17.40;46.30;;;;;;5030107;28;21132;-49
2021/06/02 03:22:12;;;;;;;3.80;3.40;;;17.40;46.20;;;;;;5030379;28;20684;-48
2021/06/02 03:25:06;;;;;;;5.50;3.50;;;17.40;45.90;;;;;;5025860;28;20684;-49
2021/06/02 03:27:44;;;;;;;4.20;3.37;;;17.40;46.60;;;;;;5019696;28;20692;-49
2021/06/02 03:30:22;;;;;;;3.63;3.33;;;17.40;46.70;;;;;;5030077;28;20688;-49
2021/06/02 03:33:03;;;;;;;4.43;4.03;;;17.40;46.70;;;;;;5030276;28;20737;-49
2021/06/02 03:35:32;;;;;;;4.50;3.90;;;17.40;46.40;;;;;;5028840;28;20666;-50
2021/06/02 03:38:04;;;;;;;3.30;3.00;;;17.40;46.50;;;;;;5029852;28;20654;-48
2021/06/02 03:40:47;;;;;;;3.37;3.07;;;17.40;46.60;;;;;;5029643;28;20684;-49
2021/06/02 03:43:19;;;;;;;3.30;3.10;;;17.30;46.90;;;;;;5028218;28;20665;-49
2021/06/02 03:46:06;;;;;;;3.03;2.80;;;17.30;47.20;;;;;;5029427;28;20631;-49
2021/06/02 03:48:40;;;;;;;4.27;3.63;;;17.30;47.40;;;;;;5029365;28;20626;-50
2021/06/02 03:51:19;;;;;;;10.80;4.80;;;17.20;47.80;;;;;;5029465;28;20627;-49
2021/06/02 03:54:02;;;;;;;3.47;3.17;;;17.20;47.80;;;;;;5009633;28;20632;-49
2021/06/02 03:56:34;;;;;;;4.80;4.30;;;17.20;48.10;;;;;;5009790;28;21273;-49
2021/06/02 03:59:08;;;;;;;6.50;3.50;;;17.20;48.50;;;;;;5009870;28;20631;-49
2021/06/02 04:01:41;;;;;;;4.00;3.53;;;17.20;48.60;;;;;;5023681;28;21239;-49
2021/06/02 04:04:13;;;;;;;4.90;4.03;;;17.20;48.70;;;;;;5028465;28;21012;-48
2021/06/02 04:06:41;;;;;;;4.60;4.07;;;17.30;48.80;;;;;;5028827;28;21487;-49
2021/06/02 04:09:10;;;;;;;4.60;4.23;;;17.40;48.80;;;;;;5028775;28;21210;-49
2021/06/02 04:11:43;;;;;;;3.60;3.30;;;17.40;48.70;;;;;;5029413;28;20669;-49
2021/06/02 04:14:11;;;;;;;4.80;4.40;;;17.40;48.60;;;;;;5028813;28;20626;-49
2021/06/02 04:16:39;;;;;;;4.20;3.80;;;17.40;48.80;;;;;;5024550;28;20671;-49
2021/06/02 04:19:07;;;;;;;6.30;4.97;;;17.40;49.20;;;;;;5029783;28;20676;-49
2021/06/02 04:21:35;;;;;;;7.23;4.30;;;17.40;49.20;;;;;;5028762;28;20689;-49
2021/06/02 04:24:04;;;;;;;6.73;4.13;;;17.40;49.00;;;;;;5028622;28;20622;-49
2021/06/02 04:26:31;;;;;;;6.03;4.40;;;17.40;49.00;;;;;;5028557;28;20651;-49
2021/06/02 04:28:59;;;;;;;4.87;4.20;;;17.30;49.40;;;;;;5028577;28;20630;-49
2021/06/02 04:31:28;;;;;;;3.97;3.40;;;17.30;49.50;;;;;;5028882;28;20687;-48
2021/06/02 04:33:55;;;;;;;4.63;4.17;;;17.30;49.60;;;;;;5028978;28;20730;-48
2021/06/02 04:36:23;;;;;;;6.63;4.80;;;17.30;49.90;;;;;;5028748;28;21001;-48
2021/06/02 04:38:50;;;;;;;7.53;5.03;;;17.40;50.00;;;;;;5031535;28;21159;-49
2021/06/02 04:41:16;;;;;;;5.83;4.87;;;17.40;50.30;;;;;;5032934;28;20649;-47
2021/06/02 04:43:43;;;;;;;5.03;4.60;;;17.40;50.20;;;;;;5032599;28;21268;-49
2021/06/02 04:46:10;;;;;;;7.40;4.40;;;17.40;50.40;;;;;;5031975;28;20654;-48
2021/06/02 04:48:38;;;;;;;6.90;4.47;;;17.50;50.60;;;;;;5032293;28;20819;-49
2021/06/02 04:51:30;;;;;;;7.10;4.10;;;17.50;51.10;;;;;;5032922;28;20630;-49
2021/06/02 04:54:30;;;;;;;4.67;4.30;;;17.50;50.80;;;;;;5031701;28;20696;-48
2021/06/02 04:57:37;;;;;;;8.50;4.57;;;17.50;50.10;;;;;;5027217;28;21305;-48
2021/06/02 05:00:22;;;;;;;5.07;3.83;;;17.50;49.80;;;;;;5002253;28;20665;-49
2021/06/02 05:03:25;;;;;;;4.20;3.47;;;17.60;49.50;;;;;;5032027;28;21139;-49
2021/06/02 05:06:34;;;;;;;4.70;3.60;;;17.60;49.60;;;;;;5031183;28;20683;-48
2021/06/02 05:09:05;;;;;;;5.30;4.43;;;17.70;49.50;;;;;;5029657;28;20725;-49
2021/06/02 05:11:59;;;;;;;4.53;3.47;;;17.70;49.20;;;;;;5032734;28;20681;-49
2021/06/02 05:14:48;;;;;;;4.67;4.27;;;17.80;48.90;;;;;;5031722;28;20755;-48
2021/06/02 05:17:40;;;;;;;5.30;3.63;;;17.90;48.80;;;;;;5031316;28;20671;-48
2021/06/02 05:22:04;;;;;;;4.33;3.93;;;17.90;48.90;;;;;;5032143;28;20693;-49
2021/06/02 05:24:12;;;;;;;3.27;2.97;;;18.00;48.80;;;;;;5031432;28;20634;-49
2021/06/02 05:27:07;;;;;;;7.83;3.10;;;18.20;49.00;;;;;;5029786;28;20662;-49
2021/06/02 05:30:19;;;;;;;3.80;2.97;;;18.30;49.20;;;;;;5011394;28;20651;-48
2021/06/02 05:33:00;;;;;;;3.53;3.23;;;18.40;48.50;;;;;;5011474;28;20739;-49
2021/06/02 05:36:03;;;;;;;4.30;3.50;;;18.50;48.00;;;;;;5011483;28;20619;-48
2021/06/02 05:38:50;;;;;;;3.40;3.10;;;18.50;48.10;;;;;;5011583;28;20697;-49
2021/06/02 05:41:29;;;;;;;3.67;3.10;;;18.60;48.90;;;;;;5011805;28;20635;-49
2021/06/02 05:44:33;;;;;;;3.67;2.93;;;18.70;48.90;;;;;;5012230;28;20631;-49
2021/06/02 05:47:26;;;;;;;4.67;3.30;;;18.80;48.60;;;;;;4969208;28;20653;-49
2021/06/02 05:50:30;;;;;;;3.67;3.33;;;18.90;48.40;;;;;;5010174;28;20713;-49
2021/06/02 05:53:19;;;;;;;3.43;2.73;;;19.00;48.00;;;;;;5011593;28;20623;-49
2021/06/02 05:55:58;;;;;;;3.60;3.30;;;19.10;48.00;;;;;;5031315;28;20631;-49
2021/06/02 05:58:56;;;;;;;6.93;3.00;;;19.10;47.80;;;;;;5031891;28;20631;-48
2021/06/02 06:01:53;;;;;;;4.37;3.60;;;19.20;47.80;;;;;;5031960;28;20627;-49
2021/06/02 06:04:51;;;;;;;3.33;3.13;;;19.30;47.90;;;;;;5030112;28;20642;-49
2021/06/02 06:07:45;;;;;;;4.80;3.03;;;19.40;47.90;;;;;;5030046;28;20729;-49
2021/06/02 06:10:37;;;;;;;3.50;3.20;;;19.50;48.10;;;;;;5030785;28;20623;-48
2021/06/02 06:14:00;;;;;;;4.00;3.50;;;19.60;48.20;;;;;;5021148;28;20642;-48
2021/06/02 06:16:40;;;;;;;10.63;4.30;;;19.70;48.40;;;;;;5030882;28;20666;-48
2021/06/02 06:19:30;;;;;;;6.00;3.03;;;19.70;48.40;;;;;;5030793;28;20681;-48
2021/06/02 06:22:05;;;;;;;6.40;4.57;;;19.80;48.50;;;;;;5031061;28;20814;-48
2021/06/02 06:24:35;;;;;;;5.20;3.33;;;19.90;48.70;;;;;;5030458;28;20700;-48
2021/06/02 06:27:04;;;;;;;4.30;3.10;;;20.00;49.20;;;;;;5030517;28;20777;-48
2021/06/02 06:29:34;;;;;;;3.30;2.80;;;20.10;48.50;;;;;;5030468;28;20642;-49
2021/06/02 06:32:03;;;;;;;7.03;3.40;;;20.10;46.70;;;;;;5031088;28;20751;-49
2021/06/02 06:34:32;;;;;;;4.13;3.73;;;20.20;47.40;;;;;;5029908;28;21199;-49
2021/06/02 06:36:59;;;;;;;3.93;2.93;;;20.30;47.60;;;;;;5030350;28;21033;-48
2021/06/02 06:39:30;;;;;;;3.20;2.67;;;20.40;47.10;;;;;;5030407;28;20638;-48
2021/06/02 06:41:57;;;;;;;2.40;2.20;;;20.50;44.40;;;;;;5030909;28;20662;-49
2021/06/02 06:44:24;;;;;;;5.63;3.37;;;20.60;43.40;;;;;;5030098;28;20995;-49
2021/06/02 06:46:53;;;;;;;2.70;2.50;;;20.70;42.60;;;;;;5029815;28;20666;-49
2021/06/02 06:49:22;;;;;;;2.80;2.47;;;20.70;42.50;;;;;;5030128;28;20675;-49
2021/06/02 06:51:52;;;;;;;2.33;1.83;;;20.80;42.10;;;;;;5030062;28;20635;-49
2021/06/02 06:54:20;;;;;;;4.80;2.83;;;20.90;41.60;;;;;;5030085;28;20774;-49
2021/06/02 06:56:47;;;;;;;4.90;2.73;;;20.90;41.30;;;;;;5029500;28;20705;-48
2021/06/02 06:59:15;;;;;;;4.60;2.77;;;21.00;41.40;;;;;;5030548;28;20689;-49
2021/06/02 07:01:41;;;;;;;3.50;1.90;;;21.10;41.10;;;;;;5029225;28;20623;-48
2021/06/02 07:04:08;;;;;;;3.47;2.97;;;21.10;40.40;;;;;;5029860;28;20631;-50
2021/06/02 07:06:37;;;;;;;3.23;2.93;;;21.20;40.50;;;;;;5029801;28;20792;-49
2021/06/02 07:09:05;;;;;;;3.23;2.53;;;21.20;40.60;;;;;;5029788;28;20730;-49
2021/06/02 07:11:36;;;;;;;2.50;2.30;;;21.30;40.90;;;;;;5030414;28;20627;-49
2021/06/02 07:14:03;;;;;;;3.87;2.83;;;21.30;40.80;;;;;;5030185;28;20703;-49
2021/06/02 07:16:30;;;;;;;2.87;2.57;;;21.40;40.90;;;;;;5029421;28;21183;-49
2021/06/02 07:18:57;;;;;;;3.07;2.43;;;21.50;40.60;;;;;;5029844;28;20619;-49
2021/06/02 07:21:24;;;;;;;5.83;2.80;;;21.60;40.70;;;;;;5029824;28;20681;-50
2021/06/02 07:23:52;;;;;;;4.07;2.30;;;21.70;40.70;;;;;;5029561;28;20991;-50
2021/06/02 07:26:19;;;;;;;3.27;2.73;;;22.00;39.20;;;;;;5029272;28;21266;-50
2021/06/02 07:28:45;;;;;;;2.00;1.90;;;22.20;39.40;;;;;;5029161;28;21030;-49
2021/06/02 07:31:12;;;;;;;2.33;2.13;;;22.40;39.60;;;;;;5029806;28;20685;-49
2021/06/02 07:33:39;;;;;;;3.03;2.27;;;22.60;39.00;;;;;;5029966;28;20670;-49
2021/06/02 07:36:08;;;;;;;2.70;2.10;;;22.80;37.70;;;;;;5029004;28;20655;-50
2021/06/02 07:38:35;;;;;;;5.93;2.50;;;22.90;38.00;;;;;;5029995;28;20627;-49
2021/06/02 07:41:03;;;;;;;2.93;2.73;;;23.00;38.30;;;;;;5029628;28;20696;-54
2021/06/02 07:43:30;;;;;;;3.53;2.90;;;23.20;38.20;;;;;;5028917;28;20618;-50
2021/06/02 07:45:57;;;;;;;3.03;2.60;;;23.30;37.90;;;;;;5028907;28;20655;-49
2021/06/02 07:48:24;;;;;;;2.90;2.70;;;23.50;38.00;;;;;;5029497;28;20642;-50
2021/06/02 07:50:50;;;;;;;2.47;2.27;;;23.70;37.40;;;;;;5029877;28;20704;-50
2021/06/02 07:53:17;;;;;;;3.70;2.53;;;23.90;36.80;;;;;;5029497;28;20627;-49
2021/06/02 07:55:44;;;;;;;3.70;3.27;;;24.00;36.40;;;;;;5028942;28;20634;-50
2021/06/02 07:58:12;;;;;;;5.93;3.00;;;24.20;36.10;;;;;;5029956;28;21269;-49
2021/06/02 08:00:39;;;;;;;3.57;2.50;;;24.30;36.00;;;;;;5029256;28;20668;-50
2021/06/02 08:03:06;;;;;;;4.40;2.90;;;24.40;36.10;;;;;;5029448;28;21120;-48
2021/06/02 08:05:33;;;;;;;3.53;3.23;;;24.50;35.90;;;;;;5029496;28;20708;-50
2021/06/02 08:07:59;;;;;;;2.97;2.77;;;24.60;35.90;;;;;;5029191;28;20651;-50
2021/06/02 08:10:26;;;;;;;3.53;2.93;;;24.70;36.20;;;;;;5029005;28;20627;-50
2021/06/02 08:12:53;;;;;;;3.50;2.93;;;24.80;36.60;;;;;;5030988;28;20714;-50
2021/06/02 08:15:21;;;;;;;4.70;3.00;;;25.10;36.40;;;;;;5033558;28;20662;-50
2021/06/02 08:17:48;;;;;;;5.10;2.57;;;25.20;35.90;;;;;;5032815;28;20666;-50
2021/06/02 08:20:16;;;;;;;5.67;2.80;;;25.40;35.20;;;;;;5032959;28;20631;-50
2021/06/02 08:22:43;;;;;;;4.70;2.80;;;25.60;35.60;;;;;;5033213;28;20634;-50
2021/06/02 08:25:11;;;;;;;6.50;3.27;;;25.80;35.40;;;;;;5033323;28;20635;-49
2021/06/02 08:27:38;;;;;;;3.47;2.43;;;26.00;34.60;;;;;;5033248;28;20658;-50
2021/06/02 08:30:06;;;;;;;3.77;2.87;;;26.10;34.20;;;;;;5033064;28;20684;-48
2021/06/02 08:32:34;;;;;;;7.63;3.23;;;26.20;34.20;;;;;;5033257;28;21163;-50
2021/06/02 08:35:01;;;;;;;4.50;3.47;;;26.40;34.60;;;;;;5033672;28;21040;-49
2021/06/02 08:37:28;;;;;;;3.67;3.37;;;26.50;34.20;;;;;;5032910;28;20663;-50
2021/06/02 08:39:55;;;;;;;3.03;2.80;;;26.60;34.50;;;;;;5033222;28;20623;-49
2021/06/02 08:42:21;;;;;;;6.13;3.00;;;26.70;33.90;;;;;;5033508;28;20627;-49
2021/06/02 08:44:48;;;;;;;4.70;3.17;;;26.80;33.90;;;;;;5032743;28;20696;-50
2021/06/02 08:47:15;;;;;;;3.00;2.50;;;26.80;33.70;;;;;;5033081;28;20678;-50
2021/06/02 08:49:43;;;;;;;6.50;3.17;;;26.90;33.50;;;;;;5033559;28;20627;-49
2021/06/02 08:52:10;;;;;;;4.07;3.77;;;26.80;33.60;;;;;;5033255;28;21032;-51
2021/06/02 08:54:37;;;;;;;5.10;3.20;;;26.80;33.80;;;;;;5032533;28;20662;-49
2021/06/02 08:57:05;;;;;;;5.13;3.07;;;26.70;33.30;;;;;;5032451;28;20674;-49
2021/06/02 08:59:31;;;;;;;3.30;2.60;;;26.70;33.60;;;;;;5032582;28;21043;-49
2021/06/02 09:01:58;;;;;;;2.90;2.70;;;26.70;33.90;;;;;;5032419;28;20680;-50
2021/06/02 09:04:26;;;;;;;3.67;3.00;;;26.60;33.90;;;;;;5032933;28;20681;-50
2021/06/02 09:06:55;;;;;;;3.60;3.30;;;26.50;34.10;;;;;;5032682;28;20984;-50
2021/06/02 09:09:21;;;;;;;4.40;3.43;;;26.40;33.10;;;;;;5032689;28;20631;-50
2021/06/02 09:11:49;;;;;;;5.03;3.27;;;26.20;33.30;;;;;;5032477;28;20680;-50
2021/06/02 09:14:23;;;;;;;4.30;3.57;;;26.20;33.70;;;;;;5032245;28;20700;-50
2021/06/02 09:16:50;;;;;;;3.67;2.87;;;26.20;33.90;;;;;;5031908;28;20805;-50
2021/06/02 09:19:30;;;;;;;7.50;3.80;;;26.30;34.50;;;;;;5032282;28;20630;-50
2021/06/02 09:21:59;;;;;;;3.37;3.07;;;26.30;33.50;;;;;;5032236;28;21187;-50
2021/06/02 09:24:44;;;;;;;4.70;4.30;;;26.40;33.30;;;;;;5031001;28;20622;-50
2021/06/02 09:27:11;;;;;;;3.90;3.50;;;26.50;32.50;;;;;;5030772;28;20658;-50
2021/06/02 09:29:48;;;;;;;6.43;3.40;;;26.60;32.50;;;;;;5032260;28;21289;-50
2021/06/02 09:32:17;;;;;;;3.93;3.47;;;26.80;32.70;;;;;;5032331;28;20619;-50
2021/06/02 09:34:44;;;;;;;5.57;5.00;;;27.30;32.40;;;;;;5032287;28;20623;-49
2021/06/02 09:37:12;;;;;;;3.07;2.77;;;27.70;31.70;;;;;;5032079;28;21197;-50
2021/06/02 09:39:39;;;;;;;3.30;3.00;;;28.20;30.90;;;;;;5031881;28;20672;-50
2021/06/02 09:42:17;;;;;;;6.70;3.00;;;28.40;30.00;;;;;;5032272;28;20700;-49
2021/06/02 09:44:45;;;;;;;3.80;3.50;;;28.50;30.00;;;;;;5032478;28;20622;-50
2021/06/02 09:47:12;;;;;;;3.20;2.90;;;28.60;30.00;;;;;;5031893;28;20650;-50
2021/06/02 09:49:46;;;;;;;4.23;3.23;;;28.50;30.10;;;;;;5032092;28;20696;-50
2021/06/02 09:52:14;;;;;;;2.83;2.63;;;28.40;30.10;;;;;;5032194;28;20631;-51
2021/06/02 09:54:41;;;;;;;3.53;3.20;;;28.20;29.80;;;;;;5032006;28;20626;-50
2021/06/02 09:57:10;;;;;;;3.80;3.10;;;27.90;30.10;;;;;;5031712;28;20663;-49
2021/06/02 09:59:55;;;;;;;5.97;3.30;;;27.60;30.80;;;;;;5032056;28;20677;-49
2021/06/02 10:02:22;;;;;;;3.40;2.80;;;27.50;31.30;;;;;;5032260;28;21141;-50
2021/06/02 10:04:58;;;;;;;4.10;2.93;;;27.30;30.90;;;;;;5031597;28;20969;-49
2021/06/02 10:07:26;;;;;;;7.93;3.70;;;27.10;30.40;;;;;;5031679;28;20661;-48
2021/06/02 10:09:53;;;;;;;2.83;2.63;;;27.00;30.70;;;;;;5031517;28;20623;-50
2021/06/02 10:12:20;;;;;;;6.33;3.50;;;26.80;30.20;;;;;;5031380;28;20673;-50
2021/06/02 10:14:56;;;;;;;3.47;3.23;;;26.70;30.20;;;;;;5031663;28;20665;-50
2021/06/02 10:17:27;;;;;;;3.20;2.97;;;26.70;31.20;;;;;;5031098;28;21297;-50
2021/06/02 10:19:54;;;;;;;6.23;3.17;;;26.60;31.70;;;;;;5031295;28;20626;-49
2021/06/02 10:22:22;;;;;;;3.20;2.90;;;26.60;31.40;;;;;;5031716;28;20712;-50
2021/06/02 10:24:51;;;;;;;5.97;3.90;;;26.60;30.90;;;;;;5031814;28;20644;-49
2021/06/02 10:27:19;;;;;;;3.70;3.30;;;26.60;31.60;;;;;;5032747;28;20659;-50
2021/06/02 10:29:45;;;;;;;3.43;3.13;;;26.70;30.70;;;;;;5031488;28;21222;-50
2021/06/02 10:32:15;;;;;;;3.03;2.70;;;26.70;30.30;;;;;;5031364;28;20639;-50
2021/06/02 10:34:42;;;;;;;2.70;2.50;;;26.70;31.10;;;;;;5030825;28;20630;-49
2021/06/02 10:37:11;;;;;;;4.10;3.23;;;26.70;31.20;;;;;;5030475;28;20651;-49
2021/06/02 10:39:38;;;;;;;2.20;2.10;;;26.70;31.00;;;;;;5030221;28;20992;-50
2021/06/02 10:42:08;;;;;;;3.50;3.10;;;26.70;31.00;;;;;;5030995;28;21160;-49
2021/06/02 10:44:36;;;;;;;4.27;3.03;;;26.80;30.70;;;;;;5031384;28;21039;-50
2021/06/02 10:47:03;;;;;;;3.47;2.70;;;27.10;30.30;;;;;;5030561;28;21199;-50
2021/06/02 10:49:34;;;;;;;3.30;3.00;;;27.30;30.50;;;;;;5031371;28;21193;-49
2021/06/02 10:52:00;;;;;;;2.60;2.40;;;27.40;29.70;;;;;;5031197;28;20619;-49
2021/06/02 10:54:34;;;;;;;3.90;3.23;;;27.50;29.70;;;;;;5030848;28;20650;-49
2021/06/02 10:57:12;;;;;;;2.87;2.20;;;27.40;29.30;;;;;;5030985;28;20701;-50
2021/06/02 10:59:40;;;;;;;3.30;3.00;;;27.30;29.50;;;;;;5031616;28;20735;-50
2021/06/02 11:02:08;;;;;;;4.33;3.83;;;27.20;29.40;;;;;;5030400;28;20645;-49
2021/06/02 11:04:35;;;;;;;3.80;2.87;;;27.20;29.40;;;;;;5030207;28;20964;-50
2021/06/02 11:07:15;;;;;;;4.50;2.57;;;27.30;29.40;;;;;;5030466;28;20658;-50
2021/06/02 11:10:00;;;;;;;5.10;3.80;;;27.50;29.60;;;;;;5030529;28;20630;-50
2021/06/02 11:13:01;;;;;;;6.17;2.70;;;27.70;29.60;;;;;;5029973;28;20681;-50
2021/06/02 11:15:43;;;;;;;3.03;2.73;;;27.90;29.40;;;;;;5030235;28;20618;-51
2021/06/02 11:18:22;;;;;;;3.63;3.13;;;28.00;29.50;;;;;;5030241;28;20651;-50
2021/06/02 11:20:50;;;;;;;4.40;2.87;;;28.20;29.80;;;;;;5028639;28;21289;-50
2021/06/02 11:23:17;;;;;;;3.73;2.80;;;28.60;29.60;;;;;;5030176;28;20661;-49
2021/06/02 11:25:44;;;;;;;3.53;2.83;;;29.30;28.70;;;;;;5029898;28;21060;-50
2021/06/02 11:28:42;;;;;;;4.40;3.10;;;29.60;27.90;;;;;;5030025;28;21203;-51
2021/06/02 11:31:23;;;;;;;3.47;3.20;;;29.90;28.00;;;;;;5029757;28;20700;-52
2021/06/02 11:33:50;;;;;;;5.90;2.93;;;29.90;27.30;;;;;;5029478;28;20622;-51
2021/06/02 11:36:17;;;;;;;3.80;3.00;;;29.80;27.10;;;;;;5030242;28;20720;-53
2021/06/02 11:38:44;;;;;;;3.43;2.67;;;29.70;27.00;;;;;;5030061;28;21249;-50
2021/06/02 11:41:12;;;;;;;3.30;2.97;;;29.70;27.20;;;;;;5029669;28;20910;-51
2021/06/02 11:43:39;;;;;;;2.80;2.60;;;29.60;27.60;;;;;;5030580;28;20643;-50
2021/06/02 11:46:06;;;;;;;3.90;2.97;;;29.40;27.60;;;;;;5029359;28;20651;-51
2021/06/02 11:48:36;;;;;;;3.10;2.70;;;29.10;27.60;;;;;;5028971;28;20627;-51
2021/06/02 11:51:07;;;;;;;3.33;3.00;;;29.00;27.90;;;;;;5029900;28;20611;-50
2021/06/02 11:53:38;;;;;;;3.60;2.97;;;28.90;28.60;;;;;;5030166;28;20692;-51
2021/06/02 11:56:05;;;;;;;3.80;3.20;;;28.90;28.90;;;;;;5029716;28;20841;-50
2021/06/02 11:58:32;;;;;;;6.17;3.47;;;29.20;28.80;;;;;;5029379;28;21067;-50
2021/06/02 12:00:59;;;;;;;3.80;2.47;;;29.40;27.60;;;;;;5029445;28;20642;-51
2021/06/02 12:03:26;;;;;;;5.30;3.20;;;29.40;27.40;;;;;;5029717;28;20623;-49
2021/06/02 12:05:54;;;;;;;3.50;3.20;;;29.30;27.70;;;;;;5029799;28;21018;-50
2021/06/02 12:08:21;;;;;;;2.80;2.50;;;29.00;27.40;;;;;;5029300;28;20985;-50
2021/06/02 12:10:48;;;;;;;2.67;2.47;;;28.70;27.40;;;;;;5029407;28;20768;-50
2021/06/02 12:13:16;;;;;;;3.20;2.87;;;28.50;27.80;;;;;;5029269;28;20750;-50
2021/06/02 12:15:44;;;;;;;2.90;2.63;;;28.50;28.50;;;;;;5029522;28;20623;-50
2021/06/02 12:18:11;;;;;;;4.00;3.43;;;28.60;28.40;;;;;;5029854;28;20708;-49
2021/06/02 12:20:38;;;;;;;3.07;2.77;;;28.70;28.30;;;;;;5029808;28;20677;-50
2021/06/02 12:23:06;;;;;;;2.57;2.37;;;28.90;27.90;;;;;;5030231;28;20722;-51
2021/06/02 12:25:34;;;;;;;7.43;3.20;;;28.90;27.90;;;;;;5030042;28;21005;-49
2021/06/02 12:28:01;;;;;;;3.10;2.20;;;28.90;27.70;;;;;;5029971;28;20658;-49
2021/06/02 12:30:30;;;;;;;3.30;2.40;;;28.80;27.70;;;;;;5031888;28;20642;-50
2021/06/02 12:32:57;;;;;;;3.33;2.80;;;28.60;28.30;;;;;;5030776;28;20619;-50
2021/06/02 12:35:29;;;;;;;3.67;3.37;;;28.50;28.30;;;;;;5031403;28;20634;-50
2021/06/02 12:38:12;;;;;;;3.40;3.10;;;28.50;28.60;;;;;;5029959;28;20679;-50
2021/06/02 12:40:40;;;;;;;9.23;3.40;;;28.60;29.20;;;;;;5030158;28;20619;-49
2021/06/02 12:43:11;;;;;;;3.40;3.10;;;28.80;29.50;;;;;;5030110;28;20616;-49
2021/06/02 12:45:38;;;;;;;2.73;2.53;;;29.10;29.40;;;;;;5029490;28;20627;-49
2021/06/02 12:48:07;;;;;;;3.30;3.00;;;29.30;28.50;;;;;;5030101;28;20603;-49
2021/06/02 12:50:42;;;;;;;3.73;3.43;;;29.30;28.00;;;;;;5030719;28;20623;-49
2021/06/02 12:53:13;;;;;;;5.17;3.17;;;29.40;28.20;;;;;;5030324;28;20625;-50
2021/06/02 12:55:41;;;;;;;5.50;3.03;;;29.40;28.60;;;;;;5028849;28;20622;-49
2021/06/02 12:58:11;;;;;;;3.37;3.10;;;29.40;28.30;;;;;;5029189;28;20655;-49
2021/06/02 13:00:39;;;;;;;3.37;3.13;;;29.40;28.70;;;;;;5032869;28;20646;-49
2021/06/02 13:03:06;;;;;;;5.43;3.23;;;29.40;28.50;;;;;;5032983;28;20658;-50
2021/06/02 13:05:33;;;;;;;3.40;3.20;;;29.50;28.60;;;;;;5032621;28;20654;-50
2021/06/02 13:08:06;;;;;;;5.50;2.73;;;29.50;28.40;;;;;;5033023;28;20651;-50
2021/06/02 13:10:35;;;;;;;3.60;2.87;;;29.50;28.80;;;;;;5032865;28;21159;-49
2021/06/02 13:13:03;;;;;;;2.20;2.10;;;29.50;28.90;;;;;;5032563;28;20684;-51
2021/06/02 13:15:31;;;;;;;3.97;2.73;;;29.50;28.20;;;;;;5033299;28;20948;-51
2021/06/02 13:17:58;;;;;;;2.93;2.63;;;29.80;28.00;;;;;;5031562;28;20667;-50
2021/06/02 13:20:35;;;;;;;2.40;2.20;;;30.10;27.90;;;;;;5033152;28;20626;-51
2021/06/02 13:23:14;;;;;;;5.93;5.43;;;30.50;27.60;;;;;;5033958;28;21214;-51
2021/06/02 13:25:42;;;;;;;4.27;2.77;;;30.90;26.80;;;;;;5032211;28;21034;-52